DLH32F EDDF-LICJ
Flight info
| Callsign | DLH32F |
|---|---|
| Flight time | 2h 10m |
| Altitude | 35000 |
| Route | ANEKI2L/18 ANEKI Y163 NATOR DCT TRA DCT RIPUS DCT GERSA DCT SOSON DCT ODINA DCT RONAB DCT GIANO |
| Aircraft | A320/M-SDE2E3FGIJ1LORWXYZ/HB1 |
Departure
| Time | 2026-05-07 10:54 |
|---|---|
| Airport | Frankfurt Main Airport (EDDF) |
Arrival
| Time | 2026-05-07 13:05 |
|---|---|
| Airport | Falcone–Borsellino Airport (LICJ) |
| Time | Latitude | Longitude | Altitude | Speed | Heading |
|---|---|---|---|---|---|
| 2026-05-07 10:17 | 50.04533 | 8.56584 | 365 ft | 0 kts | 115° |
| 2026-05-07 10:41 | 50.04533 | 8.56583 | 362 ft | 1 kts | 115° |
| 2026-05-07 10:41 | 50.04543 | 8.56551 | 366 ft | 4 kts | 114° |
| 2026-05-07 10:41 | 50.04554 | 8.56513 | 362 ft | 4 kts | 114° |
| 2026-05-07 10:42 | 50.04563 | 8.56483 | 364 ft | 4 kts | 128° |
| 2026-05-07 10:42 | 50.04581 | 8.56465 | 362 ft | 4 kts | 193° |
| 2026-05-07 10:42 | 50.04585 | 8.56466 | 362 ft | 4 kts | 205° |
| 2026-05-07 10:42 | 50.04570 | 8.56454 | 362 ft | 0 kts | 205° |
| 2026-05-07 10:46 | 50.04534 | 8.56426 | 362 ft | 12 kts | 217° |
| 2026-05-07 10:46 | 50.04486 | 8.56267 | 362 ft | 18 kts | 256° |
| 2026-05-07 10:46 | 50.04443 | 8.56081 | 362 ft | 18 kts | 246° |
| 2026-05-07 10:47 | 50.04355 | 8.56047 | 364 ft | 8 kts | 159° |
| 2026-05-07 10:47 | 50.04351 | 8.56050 | 363 ft | 0 kts | 159° |
| 2026-05-07 10:47 | 50.04350 | 8.56051 | 363 ft | 0 kts | 159° |
| 2026-05-07 10:48 | 50.04338 | 8.56058 | 365 ft | 8 kts | 159° |
| 2026-05-07 10:49 | 50.04260 | 8.56009 | 365 ft | 20 kts | 239° |
| 2026-05-07 10:49 | 50.04198 | 8.55770 | 362 ft | 26 kts | 250° |
| 2026-05-07 10:49 | 50.04137 | 8.55507 | 364 ft | 26 kts | 249° |
| 2026-05-07 10:49 | 50.04072 | 8.55241 | 364 ft | 26 kts | 249° |
| 2026-05-07 10:50 | 50.04008 | 8.54972 | 368 ft | 27 kts | 250° |
| 2026-05-07 10:50 | 50.03943 | 8.54701 | 363 ft | 27 kts | 249° |
| 2026-05-07 10:50 | 50.03878 | 8.54427 | 363 ft | 27 kts | 250° |
| 2026-05-07 10:50 | 50.03787 | 8.54173 | 364 ft | 27 kts | 249° |
| 2026-05-07 10:51 | 50.03720 | 8.53898 | 365 ft | 27 kts | 250° |
| 2026-05-07 10:51 | 50.03655 | 8.53618 | 361 ft | 28 kts | 250° |
| 2026-05-07 10:51 | 50.03585 | 8.53339 | 364 ft | 28 kts | 250° |
| 2026-05-07 10:51 | 50.03519 | 8.53057 | 365 ft | 28 kts | 250° |
| 2026-05-07 10:52 | 50.03451 | 8.52796 | 364 ft | 18 kts | 247° |
| 2026-05-07 10:52 | 50.03395 | 8.52629 | 364 ft | 18 kts | 224° |
| 2026-05-07 10:52 | 50.03299 | 8.52595 | 365 ft | 0 kts | 179° |
| 2026-05-07 10:53 | 50.03291 | 8.52595 | 363 ft | 11 kts | 179° |
| 2026-05-07 10:54 | 50.02909 | 8.52597 | 367 ft | 96 kts | 180° |
| 2026-05-07 10:54 | 50.01998 | 8.52601 | 363 ft | 164 kts | 179° |
| 2026-05-07 10:54 | 50.00749 | 8.52616 | 827 ft | 182 kts | 179° |
| 2026-05-07 10:54 | 49.99478 | 8.52680 | 1742 ft | 182 kts | 180° |
| 2026-05-07 10:55 | 49.98148 | 8.52772 | 2053 ft | 205 kts | 179° |
| 2026-05-07 10:55 | 49.96630 | 8.52887 | 2242 ft | 232 kts | 179° |
| 2026-05-07 10:55 | 49.94995 | 8.52987 | 2889 ft | 238 kts | 179° |
| 2026-05-07 10:55 | 49.93348 | 8.53080 | 3766 ft | 237 kts | 179° |
| 2026-05-07 10:56 | 49.91674 | 8.53195 | 3954 ft | 240 kts | 178° |
| 2026-05-07 10:56 | 49.90007 | 8.53317 | 3999 ft | 240 kts | 179° |
| 2026-05-07 10:56 | 49.88904 | 8.53399 | 3999 ft | 239 kts | 179° |
| 2026-05-07 10:56 | 49.87215 | 8.53523 | 4000 ft | 239 kts | 179° |
| 2026-05-07 10:57 | 49.85579 | 8.53639 | 4000 ft | 238 kts | 179° |
| 2026-05-07 10:57 | 49.83929 | 8.53753 | 4003 ft | 238 kts | 179° |
| 2026-05-07 10:57 | 49.82272 | 8.53867 | 4004 ft | 238 kts | 179° |
| 2026-05-07 10:57 | 49.80622 | 8.53980 | 4007 ft | 238 kts | 179° |
| 2026-05-07 10:58 | 49.78946 | 8.54093 | 4526 ft | 241 kts | 179° |
| 2026-05-07 10:58 | 49.77259 | 8.54045 | 5198 ft | 250 kts | 186° |
| 2026-05-07 10:58 | 49.75450 | 8.53812 | 5559 ft | 270 kts | 186° |
| 2026-05-07 10:58 | 49.73550 | 8.53555 | 6243 ft | 278 kts | 186° |
| 2026-05-07 10:59 | 49.71608 | 8.53295 | 6974 ft | 282 kts | 186° |
| 2026-05-07 10:59 | 49.69644 | 8.53035 | 7741 ft | 285 kts | 187° |
| 2026-05-07 10:59 | 49.67664 | 8.52772 | 8531 ft | 287 kts | 187° |
| 2026-05-07 10:59 | 49.65666 | 8.52504 | 9318 ft | 289 kts | 187° |
| 2026-05-07 11:00 | 49.63661 | 8.52233 | 10109 ft | 290 kts | 188° |
| 2026-05-07 11:00 | 49.61598 | 8.51953 | 10433 ft | 309 kts | 188° |
| 2026-05-07 11:00 | 49.59377 | 8.51654 | 10632 ft | 330 kts | 187° |
| 2026-05-07 11:00 | 49.57060 | 8.51346 | 11164 ft | 338 kts | 187° |
| 2026-05-07 11:01 | 49.54706 | 8.51038 | 11813 ft | 342 kts | 187° |
| 2026-05-07 11:01 | 49.52318 | 8.50727 | 12477 ft | 346 kts | 186° |
| 2026-05-07 11:01 | 49.49913 | 8.50413 | 13130 ft | 349 kts | 186° |
| 2026-05-07 11:01 | 49.47473 | 8.50094 | 13771 ft | 353 kts | 186° |
| 2026-05-07 11:02 | 49.45006 | 8.49770 | 14346 ft | 357 kts | 186° |
| 2026-05-07 11:02 | 49.42526 | 8.49445 | 14932 ft | 360 kts | 186° |
| 2026-05-07 11:02 | 49.40024 | 8.49121 | 15539 ft | 362 kts | 186° |
| 2026-05-07 11:02 | 49.37517 | 8.48798 | 16120 ft | 365 kts | 186° |
| 2026-05-07 11:03 | 49.34976 | 8.48468 | 16690 ft | 368 kts | 186° |
| 2026-05-07 11:03 | 49.32417 | 8.48135 | 17253 ft | 371 kts | 186° |
| 2026-05-07 11:03 | 49.29837 | 8.47799 | 17806 ft | 374 kts | 187° |
| 2026-05-07 11:03 | 49.27237 | 8.47461 | 18352 ft | 377 kts | 187° |
| 2026-05-07 11:04 | 49.24617 | 8.47118 | 18831 ft | 379 kts | 187° |
| 2026-05-07 11:04 | 49.21978 | 8.46769 | 19322 ft | 382 kts | 187° |
| 2026-05-07 11:04 | 49.19324 | 8.46418 | 19798 ft | 384 kts | 187° |
| 2026-05-07 11:04 | 49.16647 | 8.46068 | 20294 ft | 387 kts | 187° |
| 2026-05-07 11:05 | 49.13958 | 8.45721 | 20782 ft | 389 kts | 187° |
| 2026-05-07 11:05 | 49.11250 | 8.45375 | 21265 ft | 392 kts | 187° |
| 2026-05-07 11:05 | 49.08518 | 8.45026 | 21752 ft | 395 kts | 187° |
| 2026-05-07 11:05 | 49.05789 | 8.44543 | 22215 ft | 396 kts | 194° |
| 2026-05-07 11:06 | 49.03096 | 8.43621 | 22680 ft | 398 kts | 195° |
| 2026-05-07 11:06 | 49.00389 | 8.42670 | 23142 ft | 400 kts | 195° |
| 2026-05-07 11:06 | 48.97667 | 8.41716 | 23592 ft | 402 kts | 195° |
| 2026-05-07 11:06 | 48.94929 | 8.40762 | 24014 ft | 403 kts | 195° |
| 2026-05-07 11:07 | 48.92193 | 8.39810 | 24431 ft | 404 kts | 195° |
| 2026-05-07 11:07 | 48.89443 | 8.38856 | 24818 ft | 406 kts | 195° |
| 2026-05-07 11:07 | 48.86680 | 8.37898 | 25185 ft | 408 kts | 195° |
| 2026-05-07 11:07 | 48.83902 | 8.36938 | 25552 ft | 410 kts | 194° |
| 2026-05-07 11:08 | 48.81113 | 8.35974 | 25910 ft | 412 kts | 194° |
| 2026-05-07 11:08 | 48.78311 | 8.35004 | 26261 ft | 414 kts | 194° |
| 2026-05-07 11:08 | 48.75495 | 8.34005 | 26570 ft | 416 kts | 195° |
| 2026-05-07 11:08 | 48.72675 | 8.32977 | 26882 ft | 418 kts | 195° |
| 2026-05-07 11:09 | 48.69840 | 8.31932 | 27197 ft | 420 kts | 195° |
| 2026-05-07 11:09 | 48.66993 | 8.30880 | 27510 ft | 422 kts | 195° |
| 2026-05-07 11:09 | 48.64134 | 8.29826 | 27832 ft | 424 kts | 195° |
| 2026-05-07 11:09 | 48.61263 | 8.28769 | 28134 ft | 426 kts | 195° |
| 2026-05-07 11:10 | 48.58376 | 8.27713 | 28444 ft | 428 kts | 195° |
| 2026-05-07 11:10 | 48.55474 | 8.26658 | 28745 ft | 430 kts | 194° |
| 2026-05-07 11:10 | 48.52557 | 8.25610 | 29035 ft | 431 kts | 193° |
| 2026-05-07 11:10 | 48.49579 | 8.24972 | 29305 ft | 435 kts | 185° |
| 2026-05-07 11:11 | 48.46547 | 8.25046 | 29572 ft | 438 kts | 176° |
| 2026-05-07 11:11 | 48.43520 | 8.25713 | 29824 ft | 441 kts | 172° |
| 2026-05-07 11:11 | 48.40486 | 8.26453 | 30075 ft | 443 kts | 171° |
| 2026-05-07 11:11 | 48.37438 | 8.27196 | 30316 ft | 444 kts | 173° |
| 2026-05-07 11:12 | 48.34383 | 8.27938 | 30518 ft | 445 kts | 172° |
| 2026-05-07 11:12 | 48.31361 | 8.28669 | 30766 ft | 445 kts | 172° |
| 2026-05-07 11:12 | 48.28262 | 8.29416 | 31052 ft | 445 kts | 172° |
| 2026-05-07 11:12 | 48.25214 | 8.30149 | 31337 ft | 444 kts | 172° |
| 2026-05-07 11:13 | 48.22164 | 8.30884 | 31612 ft | 444 kts | 172° |
| 2026-05-07 11:13 | 48.19152 | 8.31613 | 31882 ft | 444 kts | 172° |
| 2026-05-07 11:13 | 48.16065 | 8.32357 | 32155 ft | 443 kts | 172° |
| 2026-05-07 11:13 | 48.13024 | 8.33090 | 32413 ft | 443 kts | 172° |
| 2026-05-07 11:14 | 48.09976 | 8.33826 | 32683 ft | 443 kts | 172° |
| 2026-05-07 11:14 | 48.06932 | 8.34563 | 32967 ft | 443 kts | 172° |
| 2026-05-07 11:14 | 48.03928 | 8.35295 | 33250 ft | 443 kts | 173° |
| 2026-05-07 11:14 | 48.00885 | 8.36037 | 33514 ft | 443 kts | 173° |
| 2026-05-07 11:15 | 47.97806 | 8.36783 | 33789 ft | 442 kts | 173° |
| 2026-05-07 11:15 | 47.94807 | 8.37505 | 34039 ft | 442 kts | 173° |
| 2026-05-07 11:15 | 47.91771 | 8.38235 | 34246 ft | 442 kts | 173° |
| 2026-05-07 11:15 | 47.88695 | 8.38972 | 34452 ft | 442 kts | 173° |
| 2026-05-07 11:16 | 47.85667 | 8.39698 | 34652 ft | 441 kts | 173° |
| 2026-05-07 11:16 | 47.82634 | 8.40427 | 34849 ft | 441 kts | 173° |
| 2026-05-07 11:16 | 47.79605 | 8.41154 | 34996 ft | 441 kts | 173° |
| 2026-05-07 11:16 | 47.76591 | 8.41876 | 35036 ft | 438 kts | 173° |
| 2026-05-07 11:17 | 47.70601 | 8.43306 | 35030 ft | 435 kts | 173° |
| 2026-05-07 11:17 | 47.64612 | 8.44528 | 35047 ft | 434 kts | 176° |
| 2026-05-07 11:18 | 47.58611 | 8.45347 | 35053 ft | 433 kts | 178° |
| 2026-05-07 11:18 | 47.52607 | 8.46110 | 35056 ft | 433 kts | 178° |
| 2026-05-07 11:19 | 47.46598 | 8.46959 | 35040 ft | 433 kts | 177° |
| 2026-05-07 11:19 | 47.40600 | 8.47857 | 35045 ft | 433 kts | 177° |
| 2026-05-07 11:20 | 47.34599 | 8.48752 | 35044 ft | 433 kts | 177° |
| 2026-05-07 11:20 | 47.28597 | 8.49626 | 35041 ft | 434 kts | 177° |
| 2026-05-07 11:21 | 47.22588 | 8.50500 | 35033 ft | 434 kts | 178° |
| 2026-05-07 11:21 | 47.16587 | 8.51377 | 35032 ft | 434 kts | 177° |
| 2026-05-07 11:22 | 47.10573 | 8.52251 | 35028 ft | 434 kts | 178° |
| 2026-05-07 11:22 | 47.04557 | 8.53119 | 35017 ft | 434 kts | 178° |
| 2026-05-07 11:23 | 46.98543 | 8.53991 | 35022 ft | 434 kts | 178° |
| 2026-05-07 11:23 | 46.92526 | 8.54865 | 35024 ft | 434 kts | 178° |
| 2026-05-07 11:24 | 46.86507 | 8.55735 | 35028 ft | 435 kts | 178° |
| 2026-05-07 11:24 | 46.80474 | 8.56594 | 35023 ft | 435 kts | 178° |
| 2026-05-07 11:25 | 46.74460 | 8.57449 | 35027 ft | 434 kts | 178° |
| 2026-05-07 11:25 | 46.68442 | 8.58304 | 35025 ft | 435 kts | 178° |
| 2026-05-07 11:26 | 46.62426 | 8.59163 | 35005 ft | 434 kts | 178° |
| 2026-05-07 11:26 | 46.56423 | 8.60021 | 35008 ft | 434 kts | 179° |
| 2026-05-07 11:27 | 46.50416 | 8.60869 | 35010 ft | 433 kts | 179° |
| 2026-05-07 11:27 | 46.44417 | 8.61715 | 35002 ft | 433 kts | 179° |
| 2026-05-07 11:28 | 46.38416 | 8.62564 | 34996 ft | 433 kts | 179° |
| 2026-05-07 11:28 | 46.32411 | 8.63410 | 34997 ft | 433 kts | 179° |
| 2026-05-07 11:29 | 46.26413 | 8.64255 | 34991 ft | 433 kts | 179° |
| 2026-05-07 11:29 | 46.20416 | 8.65093 | 34979 ft | 432 kts | 179° |
| 2026-05-07 11:30 | 46.14430 | 8.65933 | 34987 ft | 433 kts | 179° |
| 2026-05-07 11:30 | 46.08502 | 8.67618 | 35010 ft | 440 kts | 163° |
| 2026-05-07 11:31 | 46.02804 | 8.70900 | 34981 ft | 440 kts | 163° |
| 2026-05-07 11:31 | 45.97115 | 8.74174 | 34979 ft | 440 kts | 163° |
| 2026-05-07 11:32 | 45.88579 | 8.79067 | 35004 ft | 441 kts | 163° |
| 2026-05-07 11:33 | 45.82879 | 8.82342 | 35000 ft | 441 kts | 163° |
| 2026-05-07 11:33 | 45.77180 | 8.85606 | 34986 ft | 441 kts | 163° |
| 2026-05-07 11:34 | 45.71474 | 8.88866 | 34985 ft | 441 kts | 163° |
| 2026-05-07 11:34 | 45.65766 | 8.92110 | 34987 ft | 441 kts | 163° |
| 2026-05-07 11:35 | 45.60058 | 8.95349 | 34982 ft | 441 kts | 164° |
| 2026-05-07 11:35 | 45.54357 | 8.98584 | 34992 ft | 441 kts | 164° |
| 2026-05-07 11:36 | 45.48651 | 9.01802 | 34989 ft | 441 kts | 164° |
| 2026-05-07 11:36 | 45.43911 | 9.04465 | 34990 ft | 440 kts | 164° |
| 2026-05-07 11:37 | 45.38216 | 9.07671 | 34967 ft | 440 kts | 165° |
| 2026-05-07 11:37 | 45.32478 | 9.10902 | 34974 ft | 441 kts | 165° |
| 2026-05-07 11:38 | 45.26812 | 9.14086 | 34977 ft | 441 kts | 165° |
| 2026-05-07 11:38 | 45.21070 | 9.17298 | 34982 ft | 441 kts | 165° |
| 2026-05-07 11:39 | 45.15395 | 9.20454 | 34970 ft | 441 kts | 165° |
| 2026-05-07 11:39 | 45.09684 | 9.23634 | 34976 ft | 441 kts | 165° |
| 2026-05-07 11:40 | 45.03978 | 9.26809 | 34989 ft | 441 kts | 165° |
| 2026-05-07 11:40 | 44.98280 | 9.29974 | 34965 ft | 440 kts | 166° |
| 2026-05-07 11:41 | 44.92575 | 9.33130 | 34979 ft | 440 kts | 166° |
| 2026-05-07 11:41 | 44.86876 | 9.36273 | 34984 ft | 440 kts | 166° |
| 2026-05-07 11:42 | 44.81174 | 9.39406 | 34982 ft | 440 kts | 166° |
| 2026-05-07 11:42 | 44.75477 | 9.42538 | 34971 ft | 439 kts | 166° |
| 2026-05-07 11:43 | 44.69777 | 9.45666 | 34986 ft | 440 kts | 166° |
| 2026-05-07 11:43 | 44.64085 | 9.48786 | 34982 ft | 439 kts | 166° |
| 2026-05-07 11:44 | 44.58390 | 9.51908 | 34973 ft | 439 kts | 167° |
| 2026-05-07 11:44 | 44.52696 | 9.55016 | 34993 ft | 439 kts | 167° |
| 2026-05-07 11:45 | 44.47016 | 9.58103 | 35010 ft | 438 kts | 167° |
| 2026-05-07 11:45 | 44.41326 | 9.61180 | 35011 ft | 438 kts | 167° |
| 2026-05-07 11:46 | 44.35642 | 9.64258 | 35014 ft | 438 kts | 167° |
| 2026-05-07 11:46 | 44.29970 | 9.67335 | 35018 ft | 437 kts | 167° |
| 2026-05-07 11:47 | 44.24293 | 9.70406 | 35027 ft | 437 kts | 167° |
| 2026-05-07 11:47 | 44.18617 | 9.73455 | 35010 ft | 437 kts | 167° |
| 2026-05-07 11:48 | 44.12940 | 9.76502 | 35029 ft | 437 kts | 167° |
| 2026-05-07 11:48 | 44.07266 | 9.79542 | 35026 ft | 437 kts | 167° |
| 2026-05-07 11:49 | 44.01601 | 9.82572 | 35025 ft | 436 kts | 167° |
| 2026-05-07 11:49 | 43.95941 | 9.85595 | 35010 ft | 436 kts | 167° |
| 2026-05-07 11:50 | 43.90277 | 9.88615 | 35024 ft | 436 kts | 167° |
| 2026-05-07 11:50 | 43.84619 | 9.91619 | 35030 ft | 435 kts | 167° |
| 2026-05-07 11:51 | 43.78964 | 9.94621 | 35009 ft | 435 kts | 167° |
| 2026-05-07 11:51 | 43.73316 | 9.97621 | 35022 ft | 435 kts | 167° |
| 2026-05-07 11:52 | 43.67666 | 10.00609 | 35034 ft | 434 kts | 167° |
| 2026-05-07 11:52 | 43.62027 | 10.03578 | 35037 ft | 434 kts | 167° |
| 2026-05-07 11:53 | 43.56385 | 10.06548 | 35012 ft | 434 kts | 167° |
| 2026-05-07 11:53 | 43.50746 | 10.09513 | 35024 ft | 433 kts | 167° |
| 2026-05-07 11:54 | 43.45114 | 10.12465 | 35030 ft | 433 kts | 167° |
| 2026-05-07 11:54 | 43.39485 | 10.15407 | 35036 ft | 433 kts | 167° |
| 2026-05-07 11:55 | 43.33860 | 10.18343 | 35020 ft | 432 kts | 167° |
| 2026-05-07 11:55 | 43.28233 | 10.21278 | 35011 ft | 432 kts | 167° |
| 2026-05-07 11:56 | 43.22620 | 10.24211 | 35021 ft | 432 kts | 167° |
| 2026-05-07 11:56 | 43.17004 | 10.27126 | 35039 ft | 431 kts | 167° |
| 2026-05-07 11:57 | 43.11388 | 10.30024 | 35013 ft | 431 kts | 167° |
| 2026-05-07 11:57 | 43.05775 | 10.32921 | 35015 ft | 431 kts | 167° |
| 2026-05-07 11:58 | 43.00205 | 10.35796 | 35018 ft | 431 kts | 167° |
| 2026-05-07 11:58 | 42.94591 | 10.38693 | 35009 ft | 431 kts | 167° |
| 2026-05-07 11:59 | 42.88974 | 10.41579 | 35016 ft | 431 kts | 167° |
| 2026-05-07 11:59 | 42.83353 | 10.44460 | 35027 ft | 431 kts | 167° |
| 2026-05-07 12:00 | 42.77738 | 10.47338 | 35029 ft | 431 kts | 167° |
| 2026-05-07 12:00 | 42.72122 | 10.50211 | 35016 ft | 431 kts | 167° |
| 2026-05-07 12:01 | 42.66508 | 10.53086 | 35030 ft | 431 kts | 167° |
| 2026-05-07 12:01 | 42.60896 | 10.55949 | 35035 ft | 430 kts | 167° |
| 2026-05-07 12:02 | 42.55289 | 10.58795 | 35020 ft | 430 kts | 168° |
| 2026-05-07 12:02 | 42.49677 | 10.61635 | 35016 ft | 430 kts | 168° |
| 2026-05-07 12:03 | 42.44077 | 10.64467 | 35026 ft | 430 kts | 168° |
| 2026-05-07 12:03 | 42.38475 | 10.67293 | 35031 ft | 429 kts | 168° |
| 2026-05-07 12:04 | 42.32876 | 10.70118 | 35032 ft | 429 kts | 168° |
| 2026-05-07 12:04 | 42.27280 | 10.72939 | 35034 ft | 429 kts | 168° |
| 2026-05-07 12:05 | 42.21677 | 10.75748 | 35037 ft | 429 kts | 168° |
| 2026-05-07 12:05 | 42.16076 | 10.78554 | 35034 ft | 429 kts | 168° |
| 2026-05-07 12:06 | 42.10477 | 10.81358 | 35033 ft | 429 kts | 168° |
| 2026-05-07 12:06 | 42.04850 | 10.84169 | 35007 ft | 429 kts | 168° |
| 2026-05-07 12:07 | 41.99261 | 10.86956 | 35007 ft | 428 kts | 168° |
| 2026-05-07 12:07 | 41.93673 | 10.89734 | 35013 ft | 428 kts | 168° |
| 2026-05-07 12:08 | 41.88087 | 10.92501 | 34996 ft | 428 kts | 168° |
| 2026-05-07 12:08 | 41.82502 | 10.95276 | 35012 ft | 428 kts | 168° |
| 2026-05-07 12:09 | 41.76915 | 10.98045 | 35015 ft | 428 kts | 168° |
| 2026-05-07 12:09 | 41.71328 | 11.00801 | 35014 ft | 428 kts | 168° |
| 2026-05-07 12:10 | 41.65740 | 11.03557 | 34984 ft | 428 kts | 169° |
| 2026-05-07 12:10 | 41.60152 | 11.06309 | 34996 ft | 428 kts | 169° |
| 2026-05-07 12:11 | 41.54560 | 11.09059 | 35004 ft | 428 kts | 169° |
| 2026-05-07 12:11 | 41.49000 | 11.11789 | 35011 ft | 428 kts | 169° |
| 2026-05-07 12:12 | 41.43402 | 11.14524 | 34991 ft | 428 kts | 169° |
| 2026-05-07 12:12 | 41.37804 | 11.17255 | 34996 ft | 429 kts | 170° |
| 2026-05-07 12:13 | 41.32199 | 11.19989 | 35006 ft | 429 kts | 170° |
| 2026-05-07 12:13 | 41.26555 | 11.22737 | 35012 ft | 429 kts | 170° |
| 2026-05-07 12:14 | 41.20952 | 11.25463 | 34979 ft | 429 kts | 171° |
| 2026-05-07 12:14 | 41.15337 | 11.28185 | 34994 ft | 430 kts | 171° |
| 2026-05-07 12:15 | 41.09708 | 11.30909 | 34984 ft | 431 kts | 171° |
| 2026-05-07 12:15 | 41.04065 | 11.33622 | 34993 ft | 432 kts | 171° |
| 2026-05-07 12:16 | 40.98418 | 11.36345 | 34974 ft | 433 kts | 172° |
| 2026-05-07 12:16 | 40.93708 | 11.38622 | 34985 ft | 434 kts | 172° |
| 2026-05-07 12:17 | 40.88036 | 11.41353 | 34991 ft | 434 kts | 172° |
| 2026-05-07 12:17 | 40.82349 | 11.44078 | 34993 ft | 435 kts | 172° |
| 2026-05-07 12:18 | 40.76664 | 11.46795 | 34965 ft | 435 kts | 172° |
| 2026-05-07 12:18 | 40.70972 | 11.49519 | 34980 ft | 435 kts | 172° |
| 2026-05-07 12:19 | 40.65276 | 11.52245 | 34984 ft | 436 kts | 172° |
| 2026-05-07 12:19 | 40.59575 | 11.54957 | 34991 ft | 435 kts | 172° |
| 2026-05-07 12:20 | 40.53875 | 11.57661 | 34973 ft | 436 kts | 172° |
| 2026-05-07 12:20 | 40.48163 | 11.60375 | 34981 ft | 437 kts | 172° |
| 2026-05-07 12:21 | 40.42442 | 11.63080 | 34988 ft | 437 kts | 172° |
| 2026-05-07 12:21 | 40.36717 | 11.65787 | 34991 ft | 438 kts | 172° |
| 2026-05-07 12:22 | 40.30987 | 11.68500 | 34938 ft | 438 kts | 174° |
| 2026-05-07 12:22 | 40.25221 | 11.71212 | 34997 ft | 441 kts | 174° |
| 2026-05-07 12:23 | 40.19448 | 11.73933 | 34999 ft | 441 kts | 174° |
| 2026-05-07 12:23 | 40.13678 | 11.76643 | 34996 ft | 441 kts | 174° |
| 2026-05-07 12:24 | 40.07906 | 11.79344 | 34993 ft | 440 kts | 174° |
| 2026-05-07 12:24 | 40.02140 | 11.82041 | 34989 ft | 440 kts | 174° |
| 2026-05-07 12:25 | 39.96381 | 11.84723 | 34990 ft | 440 kts | 174° |
| 2026-05-07 12:25 | 39.90611 | 11.87414 | 34988 ft | 440 kts | 174° |
| 2026-05-07 12:26 | 39.84853 | 11.90153 | 34945 ft | 443 kts | 173° |
| 2026-05-07 12:26 | 39.79187 | 11.93302 | 34979 ft | 447 kts | 171° |
| 2026-05-07 12:27 | 39.73485 | 11.96666 | 34984 ft | 446 kts | 171° |
| 2026-05-07 12:27 | 39.67813 | 11.99936 | 34964 ft | 446 kts | 171° |
| 2026-05-07 12:28 | 39.62148 | 12.03110 | 34921 ft | 446 kts | 172° |
| 2026-05-07 12:28 | 39.56444 | 12.06277 | 34942 ft | 446 kts | 172° |
| 2026-05-07 12:29 | 39.50732 | 12.09451 | 34946 ft | 447 kts | 172° |
| 2026-05-07 12:29 | 39.45025 | 12.12635 | 34960 ft | 447 kts | 171° |
| 2026-05-07 12:30 | 39.39317 | 12.15826 | 34963 ft | 447 kts | 171° |
| 2026-05-07 12:30 | 39.33612 | 12.18999 | 34944 ft | 446 kts | 171° |
| 2026-05-07 12:31 | 39.27919 | 12.22162 | 34955 ft | 445 kts | 171° |
| 2026-05-07 12:31 | 39.22226 | 12.25315 | 34959 ft | 445 kts | 171° |
| 2026-05-07 12:32 | 39.16541 | 12.28450 | 34957 ft | 444 kts | 171° |
| 2026-05-07 12:32 | 39.10857 | 12.31577 | 34944 ft | 444 kts | 171° |
| 2026-05-07 12:33 | 39.02345 | 12.36285 | 34949 ft | 443 kts | 171° |
| 2026-05-07 12:33 | 38.96680 | 12.39404 | 34945 ft | 443 kts | 171° |
| 2026-05-07 12:34 | 38.91010 | 12.42509 | 34896 ft | 443 kts | 170° |
| 2026-05-07 12:34 | 38.85333 | 12.45641 | 34906 ft | 446 kts | 169° |
| 2026-05-07 12:35 | 38.79684 | 12.49002 | 34908 ft | 449 kts | 167° |
| 2026-05-07 12:35 | 38.74042 | 12.52475 | 34914 ft | 450 kts | 167° |
| 2026-05-07 12:36 | 38.68395 | 12.55903 | 34912 ft | 449 kts | 167° |
| 2026-05-07 12:36 | 38.62737 | 12.59292 | 34895 ft | 449 kts | 167° |
| 2026-05-07 12:37 | 38.57067 | 12.62678 | 34900 ft | 450 kts | 167° |
| 2026-05-07 12:37 | 38.51395 | 12.66064 | 34904 ft | 450 kts | 167° |
| 2026-05-07 12:38 | 38.45718 | 12.69441 | 34908 ft | 450 kts | 167° |
| 2026-05-07 12:38 | 38.40038 | 12.72823 | 34881 ft | 450 kts | 167° |
| 2026-05-07 12:39 | 38.34681 | 12.77229 | 34870 ft | 487 kts | 139° |
| 2026-05-07 12:39 | 38.32885 | 12.80985 | 34871 ft | 509 kts | 116° |
| 2026-05-07 12:39 | 38.32087 | 12.85413 | 34864 ft | 521 kts | 95° |
| 2026-05-07 12:40 | 38.32414 | 12.90015 | 34876 ft | 523 kts | 72° |
| 2026-05-07 12:40 | 38.33817 | 12.94172 | 34901 ft | 500 kts | 50° |
| 2026-05-07 12:40 | 38.36007 | 12.97434 | 34899 ft | 478 kts | 37° |
| 2026-05-07 12:40 | 38.38212 | 13.00627 | 34886 ft | 487 kts | 54° |
| 2026-05-07 12:41 | 38.39583 | 13.04600 | 34930 ft | 494 kts | 77° |
| 2026-05-07 12:41 | 38.39870 | 13.08929 | 34888 ft | 488 kts | 101° |
| 2026-05-07 12:41 | 38.39032 | 13.13034 | 34913 ft | 471 kts | 125° |
| 2026-05-07 12:41 | 38.37238 | 13.16371 | 34876 ft | 445 kts | 149° |
| 2026-05-07 12:42 | 38.34843 | 13.18702 | 34916 ft | 432 kts | 158° |
| 2026-05-07 12:42 | 38.32370 | 13.20910 | 34906 ft | 435 kts | 157° |
| 2026-05-07 12:42 | 38.27410 | 13.25361 | 34906 ft | 436 kts | 157° |
| 2026-05-07 12:43 | 38.22459 | 13.29803 | 34907 ft | 435 kts | 157° |
| 2026-05-07 12:43 | 38.19948 | 13.31893 | 34896 ft | 422 kts | 167° |
| 2026-05-07 12:43 | 38.17275 | 13.33214 | 34302 ft | 407 kts | 181° |
| 2026-05-07 12:44 | 38.14518 | 13.33539 | 33212 ft | 391 kts | 197° |
| 2026-05-07 12:44 | 38.11885 | 13.32926 | 32128 ft | 382 kts | 208° |
| 2026-05-07 12:44 | 38.09493 | 13.31559 | 31122 ft | 375 kts | 220° |
| 2026-05-07 12:44 | 38.07515 | 13.29462 | 30169 ft | 369 kts | 234° |
| 2026-05-07 12:45 | 38.06132 | 13.26751 | 29127 ft | 368 kts | 248° |
| 2026-05-07 12:45 | 38.05470 | 13.23608 | 28081 ft | 373 kts | 263° |
| 2026-05-07 12:45 | 38.05635 | 13.20284 | 27058 ft | 387 kts | 279° |
| 2026-05-07 12:45 | 38.06680 | 13.17065 | 26021 ft | 405 kts | 296° |
| 2026-05-07 12:46 | 38.08541 | 13.14275 | 24972 ft | 423 kts | 308° |
| 2026-05-07 12:46 | 38.10644 | 13.11618 | 23927 ft | 431 kts | 309° |
| 2026-05-07 12:46 | 38.12800 | 13.08934 | 22787 ft | 437 kts | 310° |
| 2026-05-07 12:46 | 38.14991 | 13.06227 | 21578 ft | 443 kts | 310° |
| 2026-05-07 12:47 | 38.17215 | 13.03475 | 20415 ft | 448 kts | 311° |
| 2026-05-07 12:47 | 38.19450 | 13.00692 | 19272 ft | 452 kts | 311° |
| 2026-05-07 12:47 | 38.21700 | 12.97872 | 18267 ft | 455 kts | 311° |
| 2026-05-07 12:47 | 38.23931 | 12.95070 | 17523 ft | 448 kts | 312° |
| 2026-05-07 12:48 | 38.26132 | 12.92305 | 16751 ft | 442 kts | 312° |
| 2026-05-07 12:48 | 38.28304 | 12.89568 | 15997 ft | 437 kts | 312° |
| 2026-05-07 12:48 | 38.30457 | 12.86853 | 15269 ft | 433 kts | 312° |
| 2026-05-07 12:48 | 38.32583 | 12.84163 | 14555 ft | 429 kts | 312° |
| 2026-05-07 12:49 | 38.34688 | 12.81495 | 13880 ft | 425 kts | 313° |
| 2026-05-07 12:49 | 38.36778 | 12.78847 | 13132 ft | 422 kts | 313° |
| 2026-05-07 12:49 | 38.38839 | 12.76215 | 12398 ft | 418 kts | 311° |
| 2026-05-07 12:49 | 38.40411 | 12.73169 | 11723 ft | 408 kts | 290° |
| 2026-05-07 12:50 | 38.40927 | 12.69673 | 11006 ft | 401 kts | 268° |
| 2026-05-07 12:50 | 38.40356 | 12.66223 | 10025 ft | 401 kts | 244° |
| 2026-05-07 12:50 | 38.38709 | 12.63428 | 9426 ft | 391 kts | 219° |
| 2026-05-07 12:50 | 38.36376 | 12.61863 | 9172 ft | 372 kts | 194° |
| 2026-05-07 12:51 | 38.33859 | 12.61697 | 8787 ft | 360 kts | 169° |
| 2026-05-07 12:51 | 38.31591 | 12.62900 | 8322 ft | 351 kts | 145° |
| 2026-05-07 12:51 | 38.29651 | 12.64643 | 8223 ft | 333 kts | 144° |
| 2026-05-07 12:51 | 38.27803 | 12.66301 | 8147 ft | 317 kts | 143° |
| 2026-05-07 12:52 | 38.26041 | 12.67867 | 8071 ft | 301 kts | 143° |
| 2026-05-07 12:52 | 38.24362 | 12.69346 | 7999 ft | 287 kts | 143° |
| 2026-05-07 12:52 | 38.22759 | 12.70744 | 7934 ft | 272 kts | 144° |
| 2026-05-07 12:52 | 38.21230 | 12.72065 | 7875 ft | 258 kts | 144° |
| 2026-05-07 12:53 | 38.19780 | 12.73305 | 7819 ft | 245 kts | 144° |
| 2026-05-07 12:53 | 38.18367 | 12.74505 | 7759 ft | 243 kts | 146° |
| 2026-05-07 12:53 | 38.16958 | 12.75696 | 7706 ft | 242 kts | 146° |
| 2026-05-07 12:53 | 38.15556 | 12.76873 | 7651 ft | 241 kts | 146° |
| 2026-05-07 12:54 | 38.14149 | 12.78047 | 7590 ft | 242 kts | 147° |
| 2026-05-07 12:54 | 38.12738 | 12.79219 | 7341 ft | 244 kts | 147° |
| 2026-05-07 12:54 | 38.11149 | 12.80127 | 6600 ft | 260 kts | 170° |
| 2026-05-07 12:54 | 38.09309 | 12.79971 | 5829 ft | 276 kts | 198° |
| 2026-05-07 12:55 | 38.07642 | 12.78679 | 5024 ft | 291 kts | 225° |
| 2026-05-07 12:55 | 38.06492 | 12.76512 | 4288 ft | 301 kts | 249° |
| 2026-05-07 12:55 | 38.06011 | 12.74011 | 4156 ft | 286 kts | 270° |
| 2026-05-07 12:55 | 38.06397 | 12.71635 | 4034 ft | 270 kts | 297° |
| 2026-05-07 12:56 | 38.07446 | 12.69750 | 3892 ft | 256 kts | 316° |
| 2026-05-07 12:56 | 38.08865 | 12.68503 | 3701 ft | 242 kts | 340° |
| 2026-05-07 12:56 | 38.10451 | 12.68070 | 3573 ft | 228 kts | 1° |
| 2026-05-07 12:56 | 38.11991 | 12.68371 | 3330 ft | 223 kts | 22° |
| 2026-05-07 12:57 | 38.13240 | 12.69461 | 3157 ft | 216 kts | 49° |
| 2026-05-07 12:57 | 38.13932 | 12.71099 | 3053 ft | 209 kts | 76° |
| 2026-05-07 12:57 | 38.13977 | 12.72938 | 3045 ft | 210 kts | 102° |
| 2026-05-07 12:57 | 38.13635 | 12.74735 | 3035 ft | 208 kts | 102° |
| 2026-05-07 12:58 | 38.13299 | 12.76532 | 3034 ft | 207 kts | 101° |
| 2026-05-07 12:58 | 38.12967 | 12.78321 | 3054 ft | 208 kts | 103° |
| 2026-05-07 12:58 | 38.12645 | 12.80051 | 2962 ft | 198 kts | 102° |
| 2026-05-07 12:58 | 38.12435 | 12.81174 | 2873 ft | 190 kts | 102° |
| 2026-05-07 12:59 | 38.12138 | 12.82767 | 2734 ft | 181 kts | 103° |
| 2026-05-07 12:59 | 38.11856 | 12.84275 | 2603 ft | 170 kts | 102° |
| 2026-05-07 12:59 | 38.11590 | 12.85699 | 2477 ft | 161 kts | 103° |
| 2026-05-07 12:59 | 38.11335 | 12.87062 | 2400 ft | 157 kts | 101° |
| 2026-05-07 13:00 | 38.11102 | 12.88405 | 2361 ft | 155 kts | 94° |
| 2026-05-07 13:00 | 38.11134 | 12.89769 | 2372 ft | 156 kts | 76° |
| 2026-05-07 13:00 | 38.11482 | 12.91055 | 2370 ft | 153 kts | 64° |
| 2026-05-07 13:00 | 38.11899 | 12.92277 | 2380 ft | 150 kts | 65° |
| 2026-05-07 13:01 | 38.12309 | 12.93488 | 2375 ft | 149 kts | 66° |
| 2026-05-07 13:01 | 38.12716 | 12.94694 | 2369 ft | 148 kts | 65° |
| 2026-05-07 13:01 | 38.13125 | 12.95898 | 2305 ft | 150 kts | 65° |
| 2026-05-07 13:01 | 38.13535 | 12.97104 | 2076 ft | 148 kts | 65° |
| 2026-05-07 13:02 | 38.13943 | 12.98307 | 1865 ft | 148 kts | 65° |
| 2026-05-07 13:02 | 38.14344 | 12.99496 | 1673 ft | 146 kts | 65° |
| 2026-05-07 13:02 | 38.14736 | 13.00665 | 1463 ft | 141 kts | 64° |
| 2026-05-07 13:02 | 38.15117 | 13.01795 | 1289 ft | 137 kts | 65° |
| 2026-05-07 13:03 | 38.15490 | 13.02898 | 1103 ft | 135 kts | 64° |
| 2026-05-07 13:03 | 38.15855 | 13.03987 | 931 ft | 133 kts | 64° |
| 2026-05-07 13:03 | 38.16216 | 13.05057 | 730 ft | 132 kts | 65° |
| 2026-05-07 13:03 | 38.16589 | 13.06149 | 578 ft | 135 kts | 63° |
| 2026-05-07 13:04 | 38.16957 | 13.07243 | 388 ft | 135 kts | 64° |
| 2026-05-07 13:04 | 38.17325 | 13.08329 | 177 ft | 133 kts | 65° |
| 2026-05-07 13:04 | 38.17681 | 13.09399 | 70 ft | 125 kts | 66° |
| 2026-05-07 13:04 | 38.17968 | 13.10233 | 62 ft | 79 kts | 67° |
| 2026-05-07 13:05 | 38.18118 | 13.10693 | 70 ft | 25 kts | 65° |
| 2026-05-07 13:05 | 38.18174 | 13.10668 | 70 ft | 13 kts | 279° |
| 2026-05-07 13:05 | 38.18188 | 13.10518 | 64 ft | 0 kts | 277° |
| 2026-05-07 13:07 | 38.18200 | 13.10426 | 66 ft | 16 kts | 288° |
| 2026-05-07 13:07 | 38.18285 | 13.10373 | 61 ft | 13 kts | 9° |
| 2026-05-07 13:07 | 38.18315 | 13.10431 | 63 ft | 8 kts | 65° |
| 2026-05-07 13:07 | 38.18376 | 13.10496 | 64 ft | 15 kts | 21° |
| 2026-05-07 13:08 | 38.18455 | 13.10572 | 65 ft | 9 kts | 61° |
| 2026-05-07 13:08 | 38.18501 | 13.10574 | 61 ft | 0 kts | 335° |
| 2026-05-07 13:08 | 38.18508 | 13.10570 | 57 ft | 2 kts | 336° |
| 2026-05-07 13:09 | 38.18528 | 13.10559 | 65 ft | 3 kts | 337° |